Time;durP1;ratioP1;P1;durP2;ratioP2;P2;SDS_P1;SDS_P2;PMS_P1;PMS_P2;Temp;Humidity;BMP_temperature;BMP_pressure;BME280_temperature;BME280_humidity;BME280_pressure;Samples;Min_cycle;Max_cycle;Signal;HPM_P1;HPM_P2
2021/09/09 00:00:22;;;;;;;9.48;5.85;;;;;;;19.68;63.54;99494.88;1087315;54;20031;-76
2021/09/09 00:01:26;;;;;;;8.65;6.20;;;;;;;19.62;63.46;99499.28;1087342;54;20031;-77
2021/09/09 00:02:30;;;;;;;9.98;6.70;;;;;;;19.62;63.59;99490.31;1088471;47;20030;-75
2021/09/09 00:03:34;;;;;;;7.68;5.95;;;;;;;19.62;63.68;99491.13;1087384;54;20022;-76
2021/09/09 00:04:36;;;;;;;7.63;6.20;;;;;;;19.61;63.42;99494.91;1087339;54;20034;-77
2021/09/09 00:05:40;;;;;;;8.60;6.38;;;;;;;19.62;63.47;99493.03;1089238;47;20038;-77
2021/09/09 00:06:42;;;;;;;9.55;7.05;;;;;;;19.57;63.69;99490.13;1087984;47;20034;-76
2021/09/09 00:07:46;;;;;;;9.70;7.10;;;;;;;19.56;63.85;99493.88;1087892;47;20049;-75
2021/09/09 00:08:47;;;;;;;8.65;7.00;;;;;;;19.50;63.94;99492.91;1087223;54;20427;-75
2021/09/09 00:09:52;;;;;;;9.20;6.75;;;;;;;19.54;63.85;99490.59;1087405;54;20031;-77
2021/09/09 00:10:53;;;;;;;8.18;6.82;;;;;;;19.57;63.69;99496.41;1088610;47;20027;-75
2021/09/09 00:11:57;;;;;;;9.32;6.35;;;;;;;19.60;63.85;99489.69;1087500;54;20037;-77
2021/09/09 00:12:59;;;;;;;11.80;6.78;;;;;;;19.61;63.85;99486.75;1088035;46;20015;-77
2021/09/09 00:14:03;;;;;;;9.23;6.88;;;;;;;19.64;63.77;99494.47;1087809;54;20030;-76
2021/09/09 00:15:06;;;;;;;9.00;6.30;;;;;;;19.61;63.50;99496.78;1087869;46;20037;-76
2021/09/09 00:16:11;;;;;;;9.38;7.10;;;;;;;19.57;64.05;99493.69;1087754;46;20038;-77
2021/09/09 00:17:15;;;;;;;7.90;6.30;;;;;;;19.58;64.09;99494.50;1088385;46;20038;-77
2021/09/09 00:18:19;;;;;;;10.15;6.75;;;;;;;19.53;64.07;99489.75;1087663;54;20026;-76
2021/09/09 00:19:21;;;;;;;10.68;7.15;;;;;;;19.54;64.21;99499.53;1087991;46;20030;-76
2021/09/09 00:20:25;;;;;;;9.07;6.55;;;;;;;19.51;63.88;99489.13;1087856;54;20030;-77
2021/09/09 00:21:27;;;;;;;8.43;6.30;;;;;;;19.53;64.00;99491.63;1088505;46;20030;-75
2021/09/09 00:22:31;;;;;;;8.57;5.68;;;;;;;19.55;63.78;99487.66;1087814;54;20117;-77
2021/09/09 00:23:32;;;;;;;7.78;5.53;;;;;;;19.53;64.09;99489.75;1088244;46;20038;-76
2021/09/09 00:24:36;;;;;;;10.45;6.35;;;;;;;19.53;64.16;99489.75;1087907;46;20029;-79
2021/09/09 00:25:41;;;;;;;8.95;6.40;;;;;;;19.52;63.93;99487.25;1087572;54;20466;-77
2021/09/09 00:26:42;;;;;;;9.13;6.70;;;;;;;19.50;64.32;99490.19;1089845;46;20034;-77
2021/09/09 00:27:46;;;;;;;8.10;5.90;;;;;;;19.45;64.05;99490.84;1088586;46;20037;-77
2021/09/09 00:28:48;;;;;;;8.40;6.50;;;;;;;19.44;64.23;99485.63;1088172;46;20029;-77
2021/09/09 00:29:52;;;;;;;9.25;6.88;;;;;;;19.39;64.55;99486.25;1087762;54;20034;-77
2021/09/09 00:30:54;;;;;;;10.30;6.47;;;;;;;19.36;64.35;99489.44;1087533;54;20026;-77
2021/09/09 00:31:58;;;;;;;8.10;6.28;;;;;;;19.38;64.42;99492.72;1089138;46;20031;-77
2021/09/09 00:33:02;;;;;;;10.45;6.28;;;;;;;19.39;64.24;99494.41;1087787;54;20014;-76
2021/09/09 00:34:06;;;;;;;8.75;6.38;;;;;;;19.39;64.25;99485.44;1088283;46;20042;-77
2021/09/09 00:35:08;;;;;;;10.05;6.28;;;;;;;19.33;64.59;99492.56;1087525;54;20035;-77
2021/09/09 00:36:13;;;;;;;9.75;6.90;;;;;;;19.30;64.89;99493.84;1087531;54;20078;-77
2021/09/09 00:37:17;;;;;;;8.02;6.57;;;;;;;19.36;64.77;99489.44;1087775;54;20035;-77
2021/09/09 00:38:19;;;;;;;8.82;6.35;;;;;;;19.38;64.78;99500.84;1087702;54;20034;-77
2021/09/09 00:39:23;;;;;;;10.52;7.18;;;;;;;19.39;64.40;99493.56;1087562;54;20070;-76
2021/09/09 00:40:25;;;;;;;13.38;6.85;;;;;;;19.35;64.90;99489.63;1088753;46;20403;-76
2021/09/09 00:41:31;;;;;;;9.80;6.88;;;;;;;19.36;64.49;99494.00;1088531;46;20034;-77
2021/09/09 00:42:33;;;;;;;11.52;6.93;;;;;;;19.30;64.71;99491.13;1087782;54;20030;-77
2021/09/09 00:43:37;;;;;;;11.77;7.00;;;;;;;19.23;65.02;99494.91;1088008;46;20031;-76
2021/09/09 00:44:38;;;;;;;11.80;7.07;;;;;;;19.22;65.15;99494.09;1089741;39;20232;-76
2021/09/09 00:45:43;;;;;;;7.97;6.40;;;;;;;19.26;64.57;99489.06;1087599;54;20095;-76
2021/09/09 00:46:55;;;;;;;10.75;6.68;;;;;;;19.26;65.11;99491.78;1088462;46;20010;-76
2021/09/09 00:47:59;;;;;;;9.18;7.15;;;;;;;19.25;64.93;99490.09;1087641;54;20038;-77
2021/09/09 00:49:03;;;;;;;8.93;6.38;;;;;;;19.24;64.89;99496.56;1088276;46;20061;-77
2021/09/09 00:50:08;;;;;;;9.07;6.93;;;;;;;19.26;64.77;99495.28;1087731;54;20075;-76
2021/09/09 00:51:10;;;;;;;9.70;6.63;;;;;;;19.24;65.07;99486.53;1088594;46;20037;-76
2021/09/09 00:52:16;;;;;;;9.98;6.72;;;;;;;19.25;64.83;99492.81;1089012;46;20030;-76
2021/09/09 00:53:19;;;;;;;10.40;6.63;;;;;;;19.20;64.79;99495.31;1087645;54;20027;-77
2021/09/09 00:54:24;;;;;;;9.65;6.85;;;;;;;19.17;65.14;99485.75;1088104;46;20082;-77
2021/09/09 00:55:29;;;;;;;8.27;6.55;;;;;;;19.14;65.18;99486.16;1087509;54;20054;-76
2021/09/09 00:56:31;;;;;;;9.57;6.97;;;;;;;19.09;65.43;99488.69;1088111;46;20022;-76
2021/09/09 00:57:35;;;;;;;11.25;7.13;;;;;;;19.06;65.26;99483.72;1087718;54;20094;-77
2021/09/09 00:58:39;;;;;;;11.40;6.85;;;;;;;19.06;65.42;99483.72;1089016;46;20011;-77
2021/09/09 00:59:44;;;;;;;9.75;6.75;;;;;;;19.02;65.47;99492.28;1087900;46;20026;-80
2021/09/09 01:00:45;;;;;;;8.82;7.05;;;;;;;18.97;65.54;99492.06;1087394;54;20046;-81
2021/09/09 01:01:50;;;;;;;9.10;6.28;;;;;;;18.96;65.61;99478.75;1088048;46;20042;-79
2021/09/09 01:02:54;;;;;;;9.88;7.20;;;;;;;18.95;65.76;99475.19;1087503;54;20046;-80
2021/09/09 01:03:57;;;;;;;10.20;7.45;;;;;;;18.95;65.53;99487.91;1088187;46;20038;-80
2021/09/09 01:05:04;;;;;;;8.57;6.53;;;;;;;18.92;65.97;99482.88;1087160;54;20042;-79
2021/09/09 01:06:06;;;;;;;8.40;6.65;;;;;;;18.91;65.83;99483.94;1087464;46;20046;-79
2021/09/09 01:07:10;;;;;;;9.23;6.90;;;;;;;18.88;65.98;99487.09;1087731;54;20042;-80
2021/09/09 01:08:14;;;;;;;8.27;6.93;;;;;;;18.86;66.13;99484.56;1087468;54;20042;-81
2021/09/09 01:09:16;;;;;;;9.98;7.40;;;;;;;18.86;65.69;99480.00;1087601;54;20038;-80
2021/09/09 01:10:21;;;;;;;8.35;6.30;;;;;;;18.88;65.70;99481.66;1087583;54;20041;-79
2021/09/09 01:11:22;;;;;;;9.43;7.07;;;;;;;18.86;66.02;99480.00;1087534;54;20041;-79
2021/09/09 01:12:26;;;;;;;10.32;6.72;;;;;;;18.82;65.87;99486.88;1087268;54;20030;-79
2021/09/09 01:13:28;;;;;;;8.82;6.55;;;;;;;18.81;66.25;99490.63;1088065;46;20561;-80
2021/09/09 01:14:32;;;;;;;9.02;6.72;;;;;;;18.83;66.18;99482.31;1086950;54;20038;-80
2021/09/09 01:15:37;;;;;;;7.82;6.45;;;;;;;18.76;66.09;99485.03;1087654;54;20057;-80
2021/09/09 01:16:43;;;;;;;11.00;7.50;;;;;;;18.71;66.12;99484.81;1087544;54;20095;-81
2021/09/09 01:17:44;;;;;;;11.45;8.02;;;;;;;18.71;66.38;99493.78;1087478;54;20042;-80
2021/09/09 01:18:49;;;;;;;10.30;7.55;;;;;;;18.65;66.02;99491.94;1087718;54;20036;-81
2021/09/09 01:19:50;;;;;;;9.55;7.32;;;;;;;18.63;66.22;99502.13;1087735;46;20722;-80
2021/09/09 01:20:57;;;;;;;9.07;6.72;;;;;;;18.63;66.43;99490.47;1087325;54;20039;-81
2021/09/09 01:21:59;;;;;;;10.02;7.60;;;;;;;18.60;66.31;99485.50;1087212;54;20042;-80
2021/09/09 01:23:12;;;;;;;9.57;7.43;;;;;;;18.52;66.83;99492.75;1087388;54;20041;-80
2021/09/09 01:24:19;;;;;;;9.93;7.70;;;;;;;18.49;66.76;99492.34;1087572;54;20146;-80
2021/09/09 01:25:23;;;;;;;11.57;7.75;;;;;;;18.48;66.71;99490.69;1087670;54;20034;-80
2021/09/09 01:26:28;;;;;;;8.43;7.25;;;;;;;18.47;66.87;99484.47;1087844;46;20046;-81
2021/09/09 01:27:32;;;;;;;10.95;7.30;;;;;;;18.46;67.04;99488.19;1087722;54;20034;-80
2021/09/09 01:28:39;;;;;;;11.30;7.30;;;;;;;18.45;66.77;99489.25;1087718;54;20572;-80
2021/09/09 01:29:43;;;;;;;9.60;6.65;;;;;;;18.49;66.73;99490.50;1087633;54;20149;-80
2021/09/09 01:30:52;;;;;;;9.13;6.80;;;;;;;18.51;66.60;99487.56;1087391;54;20046;-81
2021/09/09 01:31:57;;;;;;;11.30;6.57;;;;;;;18.53;66.68;99485.50;1088445;46;20054;-80
2021/09/09 01:33:00;;;;;;;8.95;6.28;;;;;;;18.58;66.71;99487.56;1087548;54;20070;-80
2021/09/09 01:34:06;;;;;;;8.85;6.03;;;;;;;18.61;66.48;99487.16;1087503;54;20406;-80
2021/09/09 01:35:11;;;;;;;12.55;7.07;;;;;;;18.54;66.57;99489.88;1087421;54;20045;-80
2021/09/09 01:36:13;;;;;;;9.38;7.32;;;;;;;18.58;66.65;99484.88;1087362;54;20038;-79
2021/09/09 01:37:17;;;;;;;10.18;6.88;;;;;;;18.54;66.49;99485.28;1087630;54;20011;-80
2021/09/09 01:38:19;;;;;;;9.18;7.07;;;;;;;18.57;66.60;99483.19;1087236;54;20062;-80
2021/09/09 01:39:34;;;;;;;10.70;7.45;;;;;;;18.52;66.58;99484.66;1087311;54;20085;-80
2021/09/09 01:40:35;;;;;;;10.18;7.00;;;;;;;18.55;66.46;99484.22;1089319;39;20480;-80
2021/09/09 01:41:40;;;;;;;9.32;7.22;;;;;;;18.54;66.78;99492.56;1087254;54;20047;-80
2021/09/09 01:42:41;;;;;;;9.93;7.55;;;;;;;18.57;66.53;99483.19;1087399;54;20046;-80
2021/09/09 01:43:45;;;;;;;10.35;6.93;;;;;;;18.55;66.58;99478.81;1087480;54;20034;-80
2021/09/09 01:44:49;;;;;;;10.43;7.40;;;;;;;18.58;66.62;99476.75;1087225;54;20043;-79
2021/09/09 01:45:52;;;;;;;9.35;6.40;;;;;;;18.60;66.60;99475.47;1087618;54;20049;-81
2021/09/09 01:46:56;;;;;;;10.05;7.30;;;;;;;18.63;66.50;99488.59;1087563;54;20030;-80
2021/09/09 01:48:00;;;;;;;8.25;5.75;;;;;;;18.64;66.19;99481.28;1087282;54;20046;-81
2021/09/09 01:49:07;;;;;;;7.75;6.03;;;;;;;18.64;66.34;99475.88;1087442;54;20049;-80
2021/09/09 01:50:09;;;;;;;9.38;5.97;;;;;;;18.64;66.30;99476.72;1087442;54;20052;-80
2021/09/09 01:51:28;;;;;;;8.00;6.22;;;;;;;18.55;67.05;99481.53;1087620;54;20082;-80
2021/09/09 01:52:30;;;;;;;9.13;6.60;;;;;;;18.54;66.91;99479.84;1087134;54;20130;-80
2021/09/09 01:53:37;;;;;;;9.20;6.80;;;;;;;18.53;66.61;99472.78;1087650;47;20043;-80
2021/09/09 01:54:42;;;;;;;10.43;7.70;;;;;;;18.48;66.83;99478.00;1087328;54;20046;-80
2021/09/09 01:55:46;;;;;;;9.02;7.43;;;;;;;18.44;67.23;99471.34;1087513;54;20039;-80
2021/09/09 01:56:47;;;;;;;9.25;7.20;;;;;;;18.39;67.33;99473.84;1087789;39;20540;-80
2021/09/09 01:57:51;;;;;;;9.93;7.13;;;;;;;18.40;67.16;99475.53;1087808;54;20031;-80
2021/09/09 01:58:55;;;;;;;9.75;7.90;;;;;;;18.37;67.57;99470.53;1087578;54;20049;-80
2021/09/09 02:00:04;;;;;;;10.02;7.95;;;;;;;18.34;67.46;99476.34;1093829;39;20570;-81
2021/09/09 02:01:05;;;;;;;10.00;7.70;;;;;;;18.34;67.44;99473.63;1087632;54;20141;-80
2021/09/09 02:02:21;;;;;;;10.48;8.27;;;;;;;18.27;67.75;99473.66;1087378;54;20049;-80
2021/09/09 02:03:23;;;;;;;9.20;7.32;;;;;;;18.31;67.41;99466.78;1090521;39;20616;-80
2021/09/09 02:04:29;;;;;;;9.55;7.15;;;;;;;18.33;67.56;99470.13;1087859;54;20045;-80
2021/09/09 02:05:30;;;;;;;9.75;7.65;;;;;;;18.31;67.49;99463.25;1088268;46;20043;-80
2021/09/09 02:06:35;;;;;;;11.80;8.13;;;;;;;18.29;67.72;99473.44;1087585;54;20066;-80
2021/09/09 02:07:40;;;;;;;10.25;7.63;;;;;;;18.27;67.70;99464.69;1087613;54;20098;-80
2021/09/09 02:08:46;;;;;;;11.60;8.50;;;;;;;18.20;67.95;99470.09;1087441;54;20034;-80
2021/09/09 02:09:50;;;;;;;10.93;7.82;;;;;;;18.15;68.08;99461.81;1087361;54;20042;-80
2021/09/09 02:10:56;;;;;;;11.57;7.70;;;;;;;18.17;68.15;99465.97;1087586;54;20042;-80
2021/09/09 02:11:58;;;;;;;10.43;7.38;;;;;;;18.14;67.97;99460.13;1087483;54;20046;-80
2021/09/09 02:13:02;;;;;;;10.23;7.53;;;;;;;18.14;68.14;99460.13;1089104;39;20496;-79
2021/09/09 02:14:05;;;;;;;11.70;7.50;;;;;;;18.11;68.43;99460.53;1089522;39;20528;-80
2021/09/09 02:15:10;;;;;;;11.55;7.63;;;;;;;18.16;67.97;99453.47;1086990;54;20042;-80
2021/09/09 02:16:11;;;;;;;8.65;7.35;;;;;;;18.16;67.91;99460.75;1087356;54;20038;-81
2021/09/09 02:17:17;;;;;;;8.75;7.18;;;;;;;18.14;68.13;99457.44;1087528;54;20015;-80
2021/09/09 02:18:19;;;;;;;9.00;7.00;;;;;;;18.13;68.20;99459.31;1087444;54;20014;-80
2021/09/09 02:19:23;;;;;;;9.07;7.07;;;;;;;18.13;68.30;99459.31;1087309;54;20023;-80
2021/09/09 02:20:24;;;;;;;8.05;6.47;;;;;;;18.13;68.48;99459.31;1087537;54;20038;-80
2021/09/09 02:21:30;;;;;;;8.75;6.90;;;;;;;18.11;68.28;99455.97;1087371;54;20049;-80
2021/09/09 02:22:31;;;;;;;9.18;6.72;;;;;;;18.13;68.20;99451.22;1087413;54;20042;-80
2021/09/09 02:23:36;;;;;;;10.50;7.18;;;;;;;18.15;68.41;99448.28;1087371;54;20038;-80
2021/09/09 02:24:43;;;;;;;8.50;6.45;;;;;;;18.16;68.25;99458.88;1087893;39;20504;-79
2021/09/09 02:25:50;;;;;;;8.85;6.93;;;;;;;18.16;68.28;99453.47;1087386;54;20099;-80
2021/09/09 02:26:54;;;;;;;8.60;6.13;;;;;;;18.14;68.08;99455.53;1087406;54;20745;-80
2021/09/09 02:27:57;;;;;;;8.70;6.55;;;;;;;18.13;68.40;99447.66;1087389;54;20042;-79
2021/09/09 02:29:01;;;;;;;8.05;6.53;;;;;;;18.17;68.25;99452.44;1088712;46;20049;-79
2021/09/09 02:30:07;;;;;;;8.65;6.53;;;;;;;18.17;68.05;99457.84;1087323;54;20034;-78
2021/09/09 02:31:11;;;;;;;8.82;6.38;;;;;;;18.17;67.96;99460.53;1087561;54;20039;-80
2021/09/09 02:32:12;;;;;;;6.95;5.63;;;;;;;18.17;68.15;99455.13;1087363;54;20096;-80
2021/09/09 02:33:17;;;;;;;8.43;6.38;;;;;;;18.15;68.07;99454.50;1088034;39;20515;-81
2021/09/09 02:34:18;;;;;;;8.75;6.82;;;;;;;18.19;68.00;99460.31;1088098;31;20538;-79
2021/09/09 02:35:22;;;;;;;8.20;6.03;;;;;;;18.21;67.82;99456.41;1087384;54;20038;-80
2021/09/09 02:36:32;;;;;;;8.52;6.53;;;;;;;18.19;68.06;99453.06;1087554;54;20035;-80
2021/09/09 02:37:37;;;;;;;10.25;6.78;;;;;;;18.19;68.20;99458.47;1087405;54;20049;-80
2021/09/09 02:38:42;;;;;;;9.27;7.32;;;;;;;18.21;68.12;99459.09;1087392;54;20053;-79
2021/09/09 02:39:47;;;;;;;8.82;6.65;;;;;;;18.21;67.94;99458.25;1087802;54;20075;-80
2021/09/09 02:40:53;;;;;;;10.82;7.32;;;;;;;18.19;68.33;99457.63;1087704;54;20066;-80
2021/09/09 02:41:57;;;;;;;10.32;7.07;;;;;;;18.19;68.20;99458.47;1087492;54;20106;-79
2021/09/09 02:42:58;;;;;;;10.13;7.45;;;;;;;18.21;67.92;99459.09;1087675;54;20045;-79
2021/09/09 02:44:02;;;;;;;10.20;6.85;;;;;;;18.25;68.07;99464.91;1087440;54;20045;-79
2021/09/09 02:45:06;;;;;;;9.82;7.07;;;;;;;18.20;67.96;99454.72;1087399;54;20038;-80
2021/09/09 02:46:11;;;;;;;9.63;7.45;;;;;;;18.21;68.12;99461.81;1087574;54;20034;-80
2021/09/09 02:47:14;;;;;;;9.57;7.80;;;;;;;18.20;68.23;99456.59;1087448;54;20046;-79
2021/09/09 02:48:23;;;;;;;10.48;7.80;;;;;;;18.16;68.27;99448.06;1088084;39;20525;-79
2021/09/09 02:49:25;;;;;;;10.10;7.50;;;;;;;18.12;68.19;99451.41;1088047;46;20581;-80
2021/09/09 02:50:36;;;;;;;12.07;7.85;;;;;;;18.07;68.51;99460.97;1087558;54;20026;-80
2021/09/09 02:51:37;;;;;;;9.75;7.78;;;;;;;18.06;68.50;99450.34;1087292;54;20034;-79
2021/09/09 02:52:42;;;;;;;10.90;7.13;;;;;;;18.09;68.38;99458.88;1087501;54;20560;-80
2021/09/09 02:53:46;;;;;;;10.23;7.82;;;;;;;18.11;68.25;99455.97;1087627;54;20035;-80
2021/09/09 02:54:48;;;;;;;9.43;7.47;;;;;;;18.05;68.20;99456.78;1087328;54;20037;-79
2021/09/09 02:55:54;;;;;;;9.80;7.80;;;;;;;18.04;68.25;99455.16;1087553;54;20647;-80
2021/09/09 02:56:56;;;;;;;10.63;7.93;;;;;;;18.00;68.58;99453.91;1087603;54;20038;-80
2021/09/09 02:58:01;;;;;;;12.23;7.72;;;;;;;18.00;68.27;99449.31;1088832;39;20539;-80
2021/09/09 02:59:03;;;;;;;9.82;7.18;;;;;;;18.05;68.42;99445.97;1087595;54;20063;-79
2021/09/09 03:00:09;;;;;;;9.30;7.07;;;;;;;18.00;68.28;99448.50;1087633;54;20042;-80
2021/09/09 03:01:13;;;;;;;10.88;8.07;;;;;;;18.01;68.58;99445.56;1087826;54;20033;-81
2021/09/09 03:02:14;;;;;;;8.88;6.78;;;;;;;18.05;68.33;99452.25;1087902;54;20042;-80
2021/09/09 03:03:20;;;;;;;8.80;7.20;;;;;;;18.03;68.31;99448.91;1088387;46;20662;-80
2021/09/09 03:04:22;;;;;;;9.77;7.47;;;;;;;17.98;68.23;99451.41;1087372;54;20069;-80
2021/09/09 03:05:29;;;;;;;11.13;7.80;;;;;;;17.90;68.49;99443.47;1087737;54;20049;-80
2021/09/09 03:06:30;;;;;;;9.88;7.55;;;;;;;17.85;68.70;99445.97;1088908;39;20629;-81
2021/09/09 03:07:35;;;;;;;10.07;8.00;;;;;;;17.86;68.78;99448.44;1087932;54;20412;-80
2021/09/09 03:08:37;;;;;;;10.18;7.55;;;;;;;17.88;68.61;99446.38;1087811;54;20030;-80
2021/09/09 03:09:41;;;;;;;9.43;7.68;;;;;;;17.87;68.73;99442.00;1087741;54;20050;-80
2021/09/09 03:10:42;;;;;;;8.98;7.15;;;;;;;17.87;68.54;99447.41;1087439;54;20031;-81
2021/09/09 03:11:50;;;;;;;9.75;7.75;;;;;;;17.84;68.81;99438.88;1089223;39;20680;-80
2021/09/09 03:12:54;;;;;;;11.38;7.50;;;;;;;17.82;68.84;99436.41;1087556;54;20018;-79
2021/09/09 03:13:58;;;;;;;9.90;7.40;;;;;;;17.77;68.86;99447.81;1087538;54;20042;-81
2021/09/09 03:15:02;;;;;;;13.30;8.80;;;;;;;17.80;68.92;99445.75;1087411;54;20683;-81
2021/09/09 03:16:04;;;;;;;13.60;8.90;;;;;;;17.74;69.19;99447.41;1086888;54;20034;-80
2021/09/09 03:17:08;;;;;;;12.27;7.93;;;;;;;17.75;69.04;99451.78;1086851;54;20045;-80
2021/09/09 03:18:12;;;;;;;10.40;8.27;;;;;;;17.76;69.19;99442.59;1087613;54;20049;-80
2021/09/09 03:19:15;;;;;;;10.45;7.82;;;;;;;17.79;69.09;99442.22;1087336;54;20588;-79
2021/09/09 03:20:19;;;;;;;9.80;7.65;;;;;;;17.82;68.67;99441.81;1087087;54;20037;-79
2021/09/09 03:21:26;;;;;;;9.75;7.68;;;;;;;17.77;69.02;99442.41;1087288;54;20596;-80
2021/09/09 03:22:30;;;;;;;8.88;6.95;;;;;;;17.82;68.74;99439.09;1087555;54;20051;-81
2021/09/09 03:23:35;;;;;;;9.73;7.18;;;;;;;17.83;68.56;99438.06;1087545;54;20038;-80
2021/09/09 03:24:39;;;;;;;13.18;8.20;;;;;;;17.85;68.55;99441.41;1089555;46;20065;-81
2021/09/09 03:25:41;;;;;;;11.73;8.27;;;;;;;17.81;68.93;99442.84;1087632;54;20047;-80
2021/09/09 03:26:47;;;;;;;15.95;8.80;;;;;;;17.80;68.93;99437.66;1087616;54;20042;-81
2021/09/09 03:27:54;;;;;;;11.73;7.88;;;;;;;17.76;68.99;99437.19;1087516;54;20039;-79
2021/09/09 03:28:55;;;;;;;12.10;8.50;;;;;;;17.78;68.95;99444.09;1087837;54;20030;-79
2021/09/09 03:30:05;;;;;;;12.18;7.90;;;;;;;17.76;68.85;99437.19;1091658;47;20058;-80
2021/09/09 03:31:07;;;;;;;10.23;7.78;;;;;;;17.75;69.08;99435.56;1087976;47;20057;-80
2021/09/09 19:16:17;;;;;;;9.10;6.55;;;;;;;22.83;52.38;99552.84;1088023;46;20019;-83
2021/09/09 19:17:24;;;;;;;8.32;6.47;;;;;;;22.81;52.78;99549.53;1088426;54;20019;-82
2021/09/09 19:18:29;;;;;;;10.70;6.82;;;;;;;22.83;52.26;99552.00;1088261;54;20695;-83
2021/09/09 19:19:33;;;;;;;11.38;7.15;;;;;;;22.81;52.66;99548.72;1088398;54;20034;-82
2021/09/09 19:22:45;;;;;;;9.18;6.45;;;;;;;22.79;53.24;99554.38;1088015;54;20019;-80
2021/09/09 19:23:49;;;;;;;10.13;6.80;;;;;;;22.87;52.77;99562.19;1088151;54;20026;-81
2021/09/09 19:27:05;;;;;;;11.30;6.40;;;;;;;22.84;53.18;99559.97;1088309;54;20006;-82
2021/09/09 19:28:09;;;;;;;8.98;6.32;;;;;;;22.87;52.53;99570.34;1088247;54;20039;-80
2021/09/09 19:29:52;;;;;;;9.05;6.53;;;;;;;22.82;52.81;99561.25;1088298;54;20031;-83
2021/09/09 19:30:54;;;;;;;9.90;6.65;;;;;;;22.65;53.18;99561.97;1088105;54;20034;-82
2021/09/09 19:32:00;;;;;;;10.40;7.22;;;;;;;22.56;53.60;99563.38;1087408;54;20034;-79
2021/09/09 19:33:07;;;;;;;10.20;7.13;;;;;;;22.47;54.12;99560.19;1086801;54;20038;-79
2021/09/09 19:34:11;;;;;;;9.70;6.72;;;;;;;22.39;54.10;99563.19;1087598;39;20501;-79
2021/09/09 19:35:30;;;;;;;10.25;6.75;;;;;;;22.31;54.75;99566.25;1086625;54;20101;-79
2021/09/09 19:36:37;;;;;;;11.95;7.47;;;;;;;22.31;54.22;99567.09;1089444;39;20517;-79
2021/09/09 19:37:39;;;;;;;11.10;6.20;;;;;;;22.24;54.23;99561.75;1086216;54;20599;-78
2021/09/09 19:39:04;;;;;;;8.10;6.32;;;;;;;22.24;54.56;99569.94;1086248;54;20038;-80
2021/09/09 19:40:10;;;;;;;10.15;7.22;;;;;;;22.23;54.29;99568.28;1086276;54;20038;-79
2021/09/09 19:41:11;;;;;;;7.70;6.03;;;;;;;22.18;54.58;99568.16;1086136;47;20076;-79
2021/09/09 19:42:21;;;;;;;9.57;6.68;;;;;;;22.08;55.27;99576.88;1086043;54;20041;-80
2021/09/09 19:43:25;;;;;;;8.65;6.03;;;;;;;22.00;55.10;99576.38;1086494;54;20059;-80
2021/09/09 19:44:31;;;;;;;8.65;6.18;;;;;;;22.02;55.49;99580.53;1086168;54;20039;-78
2021/09/09 19:45:35;;;;;;;8.45;6.78;;;;;;;21.94;55.44;99576.22;1086851;47;20038;-79
2021/09/09 19:46:37;;;;;;;9.63;6.65;;;;;;;21.85;55.31;99577.63;1086221;54;20039;-80
2021/09/09 19:47:42;;;;;;;10.88;5.90;;;;;;;21.86;55.46;99576.56;1086386;47;20035;-80
2021/09/09 19:48:50;;;;;;;10.10;6.47;;;;;;;21.84;55.78;99575.97;1086115;54;20039;-78
2021/09/09 19:49:52;;;;;;;8.00;5.72;;;;;;;21.76;56.00;99581.72;1086166;54;20046;-80
2021/09/09 19:50:57;;;;;;;8.55;6.25;;;;;;;21.76;55.61;99585.28;1086233;54;20045;-79
2021/09/09 19:52:01;;;;;;;9.70;6.55;;;;;;;21.74;55.71;99581.97;1086269;54;20067;-80
2021/09/09 19:53:06;;;;;;;9.10;5.95;;;;;;;21.76;55.61;99589.88;1086339;54;20034;-79
2021/09/09 19:54:07;;;;;;;9.35;5.70;;;;;;;21.74;55.69;99583.84;1087297;39;20398;-79
2021/09/09 19:55:13;;;;;;;8.93;5.50;;;;;;;21.75;56.10;99588.22;1086481;54;20038;-83
2021/09/09 19:56:15;;;;;;;8.63;5.68;;;;;;;21.75;56.03;99586.34;1088245;54;20059;-83
2021/09/09 19:57:19;;;;;;;7.32;5.60;;;;;;;21.66;56.08;99585.00;1088173;54;20019;-81
2021/09/09 19:58:24;;;;;;;10.25;6.18;;;;;;;21.66;56.17;99591.25;1088143;54;20019;-83
2021/09/09 19:59:33;;;;;;;8.73;5.65;;;;;;;21.53;56.75;99588.69;1088232;54;20023;-82
2021/09/09 20:00:35;;;;;;;10.25;6.30;;;;;;;21.51;56.71;99591.63;1088091;54;20054;-82
2021/09/09 20:05:55;;;;;;;10.77;6.40;;;;;;;21.29;57.70;99599.41;1088226;54;19995;-82
2021/09/09 20:07:02;;;;;;;9.77;6.45;;;;;;;21.26;57.61;99599.03;1088250;54;20027;-83
2021/09/09 20:08:07;;;;;;;9.18;6.10;;;;;;;21.27;57.80;99597.97;1088213;54;20026;-83
2021/09/09 20:09:09;;;;;;;10.43;6.20;;;;;;;21.33;57.34;99603.34;1088191;54;20038;-84
2021/09/09 20:10:21;;;;;;;9.40;6.68;;;;;;;21.21;58.15;99601.63;1088226;54;20653;-82
2021/09/09 20:11:26;;;;;;;9.18;6.22;;;;;;;21.25;57.96;99598.22;1088279;54;20030;-82
2021/09/09 20:14:04;;;;;;;8.57;6.18;;;;;;;21.17;58.30;99606.66;1088281;54;20018;-82
2021/09/09 20:15:23;;;;;;;8.00;5.57;;;;;;;21.17;58.21;99602.06;1088312;54;20026;-82
2021/09/09 20:16:28;;;;;;;10.38;6.40;;;;;;;21.33;57.70;99600.63;1088091;54;20031;-83
2021/09/09 20:17:33;;;;;;;11.40;6.80;;;;;;;21.29;57.87;99598.59;1088316;54;20036;-83
2021/09/09 20:18:46;;;;;;;11.52;6.78;;;;;;;21.22;58.50;99600.53;1088098;54;20047;-83
2021/09/09 20:19:48;;;;;;;8.50;6.35;;;;;;;21.24;58.14;99604.72;1088174;54;20091;-83
2021/09/09 20:20:53;;;;;;;8.63;6.18;;;;;;;21.25;58.22;99598.22;1088279;54;20030;-81
2021/09/09 20:21:55;;;;;;;10.07;6.05;;;;;;;21.28;57.96;99602.38;1088204;54;20015;-82
2021/09/09 20:23:02;;;;;;;8.32;6.38;;;;;;;21.31;58.30;99601.88;1088721;39;20535;-82
2021/09/09 20:24:04;;;;;;;8.57;5.72;;;;;;;21.28;58.26;99603.19;1088164;54;20019;-82
2021/09/09 20:25:37;;;;;;;7.93;6.40;;;;;;;21.27;58.52;99601.50;1088216;54;20068;-81
2021/09/09 20:26:41;;;;;;;10.80;6.38;;;;;;;21.22;58.33;99598.66;1088189;54;20050;-82
2021/09/09 20:27:52;;;;;;;9.75;6.32;;;;;;;21.19;58.40;99604.53;1088392;54;20037;-83
2021/09/09 20:28:53;;;;;;;9.20;6.30;;;;;;;21.21;58.13;99597.00;1088538;54;20030;-83
2021/09/09 20:30:25;;;;;;;11.82;6.70;;;;;;;21.20;58.59;99603.47;1088554;54;20034;-84
2021/09/09 20:31:27;;;;;;;15.85;5.97;;;;;;;21.25;58.35;99597.38;1088530;54;20547;-81
2021/09/09 20:33:10;;;;;;;8.52;6.18;;;;;;;21.29;58.05;99601.31;1088570;54;20041;-82
2021/09/09 20:34:12;;;;;;;8.40;5.95;;;;;;;21.29;58.21;99609.47;1088536;54;20022;-82
2021/09/09 20:35:20;;;;;;;7.88;6.18;;;;;;;21.28;57.95;99602.38;1088413;54;20041;-81
2021/09/09 20:36:22;;;;;;;8.75;5.97;;;;;;;21.28;58.09;99605.91;1088487;54;20014;-81
2021/09/09 20:37:35;;;;;;;8.48;5.63;;;;;;;21.33;57.69;99600.63;1088510;54;20054;-81
2021/09/09 20:38:47;;;;;;;9.88;5.88;;;;;;;21.39;57.52;99606.19;1088615;46;20034;-80
2021/09/09 20:39:49;;;;;;;7.60;5.53;;;;;;;21.45;57.26;99597.13;1088490;54;20022;-81
2021/09/09 20:41:16;;;;;;;8.60;6.13;;;;;;;21.39;57.80;99604.34;1088579;54;20753;-83
2021/09/09 20:42:18;;;;;;;11.73;6.00;;;;;;;21.42;57.44;99603.03;1088434;54;20038;-80
2021/09/09 20:43:23;;;;;;;10.13;6.35;;;;;;;21.49;57.42;99603.78;1088463;54;20024;-82
2021/09/09 20:44:27;;;;;;;7.63;6.10;;;;;;;21.50;57.03;99598.13;1088503;54;20018;-81
2021/09/09 20:47:18;;;;;;;6.70;5.43;;;;;;;21.52;56.99;99606.06;1088451;54;20018;-82
2021/09/09 20:48:38;;;;;;;14.25;5.95;;;;;;;21.61;57.00;99607.44;1088600;54;20060;-82
2021/09/09 20:49:39;;;;;;;8.95;5.80;;;;;;;21.69;56.99;99617.16;1088499;54;20015;-80
2021/09/09 20:50:44;;;;;;;7.38;5.65;;;;;;;21.76;56.66;99607.03;1088602;54;20019;-81
2021/09/09 20:51:48;;;;;;;8.18;5.40;;;;;;;21.78;56.53;99607.63;1088527;54;20030;-82
2021/09/09 20:52:50;;;;;;;6.93;5.45;;;;;;;21.84;56.64;99594.19;1088673;46;20038;-83
2021/09/09 20:53:57;;;;;;;7.30;5.80;;;;;;;21.86;56.37;99597.50;1088589;54;20042;-83
2021/09/09 20:54:59;;;;;;;7.80;5.60;;;;;;;21.89;56.15;99603.31;1088534;54;20052;-81
2021/09/09 20:56:43;;;;;;;8.23;5.70;;;;;;;21.85;56.47;99591.22;1106231;39;20665;-82
2021/09/09 20:57:45;;;;;;;7.25;5.82;;;;;;;21.85;56.66;99602.09;1088563;54;20029;-83
2021/09/09 21:00:39;;;;;;;9.52;5.53;;;;;;;21.65;56.79;99605.91;1088508;54;20019;-83
2021/09/09 21:01:43;;;;;;;7.95;5.85;;;;;;;21.62;57.01;99597.38;1092014;39;20570;-82
2021/09/09 21:02:48;;;;;;;8.80;6.80;;;;;;;21.53;57.34;99599.56;1088495;54;20030;-83
2021/09/09 21:04:06;;;;;;;9.60;6.60;;;;;;;21.47;57.77;99605.91;1088570;54;20034;-81